Watertown, Connecticut
Current Conditions -  °F | °C
As of 7:50 AM on Sunday 21 Dec 2014 (Local Time) from KOXC Reporting Station
Light Snow Light Snow  
Wind Chill: 24°   Ceiling: 1800
Heat Index: 30°   Visibility: 2mi
Dew Point: 23°   Wind: 6mph
Humidity: 75%   Direction: 30°NNE
Pressure: 30.26"   Gusts: NA
Location:  41.61°N, 73.12°W
Report Text: KOXC 211250Z 03005KT 2SM -SN BR OVC018 M01/M05 A3026
Loading
Personal Weather Stations






























Interactive Weather Map New forecast layout! Learn more

10-Day Weather Forecast

Advertisements
Track Severe Weather on mobile